< < Back
Terminal Aerodrome Forecast


Current Version              Previous Versions:   1  2  3  4  5  6  7  8  9  

Terminal Aerodrome Forecast

678
FTUS42 KMLB 290902 AAA
TAFMCO
TAF AMD
KMCO 290902Z 2909/3006 07004KT P6SM SCT040
     FM291500 07011KT P6SM SCT035
     FM291800 07013KT P6SM SCT045
     FM300100 06007KT P6SM FEW045=



Latest METAR

159
SAUS70 KWBC 292200 RRM
MTRMCO
METAR KMCO 292153Z 06015KT 10SM FEW040 SCT085 29/19 A3007 RMK AO2 SLP180
T02940194


USA.gov is the U.S. government's official web portal to all federal, state and local government web resources and services.